This is the latest recevied weather packets stored in our database for station/object 9W2YIE-13. If no packets are shown the sender has not sent any weather packets the latest 10 day(s).
| Time | Temp. | Humidity | Pressure | Rain* | Wind** | Luminosity | Snow |
|---|---|---|---|---|---|---|---|
| 1787709501 | 41.11° C | 37% | 1009 hPa | - | - | 0 W/m² | - |
| 1787705785 | 38.89° C | 40% | 1009 hPa | - | - | 0 W/m² | - |
| 1787704841 | 39.44° C | 40% | 1009 hPa | - | - | 0 W/m² | - |
| 1787704258 | 38.89° C | 41% | 1009 hPa | - | - | 0 W/m² | - |
| 1787703323 | 39.44° C | 39% | 1008 hPa | - | - | 0 W/m² | - |
| 1787702358 | 40.56° C | 38% | 1008 hPa | - | - | 0 W/m² | - |
| 1787701420 | 40° C | 38% | 1008 hPa | - | - | 0 W/m² | - |
| 1787700654 | 39.44° C | 39% | 1008 hPa | - | - | 0 W/m² | - |
| 1787699707 | 40° C | 39% | 1008 hPa | - | - | 0 W/m² | - |
| 1787698772 | 38.89° C | 40% | 1008 hPa | - | - | 0 W/m² | - |
| 1787697819 | 40° C | 39% | 1008 hPa | - | - | 0 W/m² | - |
| 1787696889 | 40° C | 38% | 1007 hPa | - | - | 0 W/m² | - |
| 1787695958 | 40.56° C | 37% | 1007 hPa | - | - | 0 W/m² | - |
| 1787695033 | 39.44° C | 39% | 1007 hPa | - | - | 0 W/m² | - |
| 1787694746 | 39.44° C | 40% | 1007 hPa | - | - | 0 W/m² | - |
| 1787693774 | 39.44° C | 39% | 1007 hPa | - | - | 0 W/m² | - |
| 1787692841 | 39.44° C | 39% | 1006 hPa | - | - | 0 W/m² | - |
| 1787691893 | 39.44° C | 40% | 1006 hPa | - | - | 0 W/m² | - |
| 1787690940 | 40° C | 39% | 1006 hPa | - | - | 0 W/m² | - |
| 1787689978 | 40° C | 38% | 1006 hPa | - | - | 0 W/m² | - |
| 1787689374 | 40.56° C | 38% | 1006 hPa | - | - | 0 W/m² | - |
| 1787688411 | 40.56° C | 39% | 1007 hPa | - | - | 0 W/m² | - |
| 1787687477 | 38.89° C | 41% | 1007 hPa | - | - | 0 W/m² | - |
| 1787686549 | 40.56° C | 38% | 1007 hPa | - | - | 0 W/m² | - |
| 1787685619 | 41.11° C | 37% | 1007 hPa | - | - | 0 W/m² | - |
* Rain since midnight (hover to see other rain measurements)
** Current wind speed in m/s (hover to see current wind gust speed)